createdAt,value
2022-09-20T00:00:11.709Z,100.00
2022-09-20T00:02:37.989Z,100.00
2022-09-20T00:05:04.581Z,100.00
2022-09-20T00:07:31.074Z,100.00
2022-09-20T00:09:57.946Z,100.00
2022-09-20T00:12:24.282Z,100.00
2022-09-20T00:14:50.598Z,100.00
2022-09-20T00:17:16.903Z,100.00
2022-09-20T00:19:43.226Z,100.00
2022-09-20T00:22:09.513Z,100.00
2022-09-20T00:24:36.692Z,100.00
2022-09-20T00:27:03.758Z,100.00
2022-09-20T00:29:30.051Z,100.00
2022-09-20T00:31:56.369Z,100.00
2022-09-20T00:34:41.554Z,100.00
2022-09-20T00:37:07.913Z,100.00
2022-09-20T00:39:34.206Z,100.00
2022-09-20T00:42:00.527Z,100.00
2022-09-20T00:44:45.416Z,100.00
2022-09-20T00:47:14.005Z,100.00
2022-09-20T00:49:40.871Z,100.00
2022-09-20T00:52:07.389Z,100.00
2022-09-20T00:54:33.848Z,100.00
2022-09-20T00:57:00.261Z,100.00
2022-09-20T00:59:32.117Z,100.00
2022-09-20T01:02:05.428Z,100.00
2022-09-20T01:04:34.679Z,100.00
2022-09-20T01:07:02.849Z,100.00
2022-09-20T01:09:29.311Z,100.00
2022-09-20T01:11:57.003Z,100.00
2022-09-20T01:14:25.292Z,100.00
2022-09-20T01:16:57.517Z,100.00
2022-09-20T01:19:42.557Z,100.00
2022-09-20T01:22:21.182Z,100.00
2022-09-20T01:25:04.898Z,100.00
2022-09-20T01:27:51.119Z,100.00
2022-09-20T01:30:20.525Z,100.00
2022-09-20T01:33:09.524Z,100.00
2022-09-20T01:35:36.622Z,100.00
2022-09-20T01:38:06.602Z,100.00
2022-09-20T01:40:36.132Z,100.00
2022-09-20T01:43:31.845Z,100.00
2022-09-20T01:46:00.380Z,100.00
2022-09-20T01:48:37.904Z,100.00
2022-09-20T01:51:23.038Z,100.00
2022-09-20T01:54:12.253Z,100.00
2022-09-20T01:56:50.878Z,100.00
2022-09-20T01:59:36.001Z,100.00
2022-09-20T02:02:05.443Z,100.00
2022-09-20T02:04:45.165Z,100.00
2022-09-20T02:07:17.937Z,100.00
2022-09-20T02:09:53.602Z,100.00
2022-09-20T02:12:46.470Z,100.00
2022-09-20T02:15:12.745Z,100.00
2022-09-20T02:17:39.036Z,100.00
2022-09-20T02:20:05.420Z,100.00
2022-09-20T02:22:41.201Z,100.00
2022-09-20T02:25:26.313Z,100.00
2022-09-20T02:28:11.382Z,100.00
2022-09-20T02:31:00.774Z,100.00
2022-09-20T02:33:42.372Z,100.00
2022-09-20T02:36:27.945Z,100.00
2022-09-20T02:39:13.206Z,100.00
2022-09-20T02:41:55.451Z,100.00
2022-09-20T02:44:29.188Z,100.00
2022-09-20T02:47:14.028Z,100.00
2022-09-20T02:50:02.074Z,100.00
2022-09-20T02:52:35.843Z,100.00
2022-09-20T02:55:18.082Z,100.00
2022-09-20T02:58:01.728Z,100.00
2022-09-20T03:00:44.288Z,100.00
2022-09-20T03:03:21.967Z,100.00
2022-09-20T03:05:58.309Z,100.00
2022-09-20T03:08:24.609Z,100.00
2022-09-20T03:11:03.480Z,100.00
2022-09-20T03:13:42.204Z,100.00
2022-09-20T03:16:14.708Z,100.00
2022-09-20T03:18:48.965Z,100.00
2022-09-20T03:21:33.978Z,100.00
2022-09-20T03:24:08.885Z,100.00
2022-09-20T03:26:51.749Z,100.00
2022-09-20T03:29:21.078Z,100.00
2022-09-20T03:32:10.742Z,100.00
2022-09-20T03:34:47.493Z,100.00
2022-09-20T03:37:22.065Z,100.00
2022-09-20T03:40:03.948Z,100.00
2022-09-20T03:42:30.595Z,100.00
2022-09-20T03:45:15.849Z,100.00
2022-09-20T03:48:00.580Z,100.00
2022-09-20T03:50:36.108Z,100.00
2022-09-20T03:53:20.658Z,100.00
2022-09-20T03:55:46.976Z,100.00
2022-09-20T03:58:32.103Z,100.00
2022-09-20T04:01:18.712Z,100.00
2022-09-20T04:03:51.189Z,100.00
2022-09-20T04:06:17.454Z,100.00
2022-09-20T04:09:02.880Z,100.00
2022-09-20T04:11:32.561Z,100.00
2022-09-20T04:14:11.641Z,100.00
2022-09-20T04:16:46.188Z,100.00
2022-09-20T04:19:17.847Z,100.00
2022-09-20T04:21:48.444Z,100.00
2022-09-20T04:24:17.516Z,100.00
2022-09-20T04:26:47.259Z,100.00
2022-09-20T04:29:36.346Z,100.00
2022-09-20T04:32:11.860Z,100.00
2022-09-20T04:35:07.173Z,100.00
2022-09-20T04:37:36.013Z,100.00
2022-09-20T04:40:25.899Z,100.00
2022-09-20T04:42:55.579Z,100.00
2022-09-20T04:45:38.076Z,100.00
2022-09-20T04:48:36.390Z,100.00
2022-09-20T04:51:18.054Z,100.00
2022-09-20T04:53:57.905Z,100.00
2022-09-20T04:56:43.033Z,100.00
2022-09-20T04:59:10.272Z,100.00
2022-09-20T05:01:55.601Z,100.00
2022-09-20T05:04:31.572Z,100.00
2022-09-20T05:07:01.007Z,100.00
2022-09-20T05:09:30.386Z,100.00
2022-09-20T05:12:15.468Z,100.00
2022-09-20T05:15:00.643Z,100.00
2022-09-20T05:17:30.942Z,100.00
2022-09-20T05:20:06.325Z,100.00
2022-09-20T05:22:53.270Z,97.19
2022-09-20T05:25:19.549Z,96.88
2022-09-20T05:28:04.643Z,100.00
2022-09-20T05:30:38.368Z,94.08
2022-09-20T05:33:24.637Z,94.60
2022-09-20T05:36:00.254Z,94.73
2022-09-20T05:38:32.134Z,96.03
2022-09-20T05:41:18.707Z,96.30
2022-09-20T05:43:54.358Z,96.39
2022-09-20T05:46:26.816Z,96.46
2022-09-20T05:48:56.353Z,96.46
2022-09-20T05:51:22.669Z,96.25
2022-09-20T05:54:07.796Z,96.42
2022-09-20T05:56:43.170Z,96.13
2022-09-20T05:59:24.292Z,96.14
2022-09-20T06:02:09.624Z,96.30
2022-09-20T06:04:48.105Z,96.52
2022-09-20T06:07:29.673Z,95.76
2022-09-20T06:09:59.189Z,95.74
2022-09-20T06:12:44.304Z,94.64
2022-09-20T06:15:29.098Z,96.71
2022-09-20T06:18:04.352Z,93.35
2022-09-20T06:20:39.180Z,96.48
2022-09-20T06:23:06.027Z,92.69
2022-09-20T06:25:39.257Z,92.97
2022-09-20T06:28:08.173Z,92.76
2022-09-20T06:30:36.098Z,91.61
2022-09-20T06:33:05.524Z,92.13
2022-09-20T06:35:58.861Z,92.11
2022-09-20T06:38:47.434Z,91.91
2022-09-20T06:41:29.885Z,91.96
2022-09-20T06:44:00.415Z,91.60
2022-09-20T06:46:36.502Z,91.56
2022-09-20T06:49:03.415Z,91.47
2022-09-20T06:51:35.173Z,91.61
2022-09-20T06:54:01.597Z,91.47
2022-09-20T06:56:30.285Z,91.32
2022-09-20T06:58:56.956Z,91.29
2022-09-20T07:01:30.043Z,91.30
2022-09-20T07:03:56.830Z,90.78
2022-09-20T07:06:23.158Z,90.75
2022-09-20T07:08:49.478Z,90.50
2022-09-20T07:11:17.100Z,90.64
2022-09-20T07:13:44.150Z,90.65
2022-09-20T07:16:12.757Z,90.70
2022-09-20T07:18:40.722Z,91.30
2022-09-20T07:21:08.735Z,91.54
2022-09-20T07:23:35.087Z,91.21
2022-09-20T07:26:01.615Z,90.98
2022-09-20T07:28:28.801Z,90.99
2022-09-20T07:30:55.168Z,90.75
2022-09-20T07:33:22.038Z,90.79
2022-09-20T07:35:48.883Z,90.48
2022-09-20T07:38:16.968Z,90.69
2022-09-20T07:40:43.670Z,90.67
2022-09-20T07:43:10.007Z,90.38
2022-09-20T07:45:39.089Z,90.55
2022-09-20T07:48:07.251Z,91.04
2022-09-20T07:50:33.847Z,91.82
2022-09-20T07:53:00.736Z,92.71
2022-09-20T07:55:27.429Z,92.81
2022-09-20T07:57:55.143Z,93.72
2022-09-20T08:00:21.605Z,94.34
2022-09-20T08:02:47.945Z,94.31
2022-09-20T08:05:14.385Z,95.06
2022-09-20T08:07:40.790Z,95.83
2022-09-20T08:10:07.539Z,96.45
2022-09-20T08:15:20.647Z,97.16
2022-09-20T08:17:47.448Z,98.44
2022-09-20T08:20:13.975Z,99.14
2022-09-20T08:22:42.934Z,100.00
2022-09-20T08:25:09.453Z,100.00
2022-09-20T08:27:36.146Z,100.00
2022-09-20T08:30:02.539Z,100.00
2022-09-20T08:32:28.876Z,100.00
2022-09-20T08:34:55.224Z,100.00
2022-09-20T08:37:21.618Z,100.00
2022-09-20T08:39:57.969Z,100.00
2022-09-20T08:42:33.926Z,100.00
2022-09-20T08:45:03.388Z,100.00
2022-09-20T08:47:31.545Z,100.00
2022-09-20T08:49:59.204Z,100.00
2022-09-20T08:52:35.870Z,100.00
2022-09-20T08:55:07.522Z,100.00
2022-09-20T08:57:34.977Z,100.00
2022-09-20T09:00:01.756Z,100.00
2022-09-20T09:02:30.951Z,100.00
2022-09-20T09:04:57.610Z,100.00
2022-09-20T09:07:25.072Z,100.00
2022-09-20T09:09:52.788Z,100.00
2022-09-20T09:12:22.718Z,100.00
2022-09-20T09:14:51.049Z,100.00
2022-09-20T09:17:27.435Z,100.00
2022-09-20T09:19:54.083Z,100.00
2022-09-20T09:22:23.531Z,100.00
2022-09-20T09:25:10.534Z,100.00
2022-09-20T09:27:49.541Z,100.00
2022-09-20T09:30:20.482Z,100.00
2022-09-20T09:32:46.794Z,100.00
2022-09-20T09:35:29.461Z,100.00
2022-09-20T09:37:57.819Z,100.00
2022-09-20T09:40:24.683Z,100.00
2022-09-20T09:42:55.709Z,100.00
2022-09-20T09:45:38.703Z,100.00
2022-09-20T09:48:25.510Z,100.00
2022-09-20T09:51:07.829Z,100.00
2022-09-20T09:53:35.737Z,100.00
2022-09-20T09:56:14.188Z,100.00
2022-09-20T09:58:54.846Z,100.00
2022-09-20T10:01:40.225Z,100.00
2022-09-20T10:04:12.903Z,100.00
2022-09-20T10:06:49.308Z,100.00
2022-09-20T10:09:24.090Z,100.00
2022-09-20T10:12:12.198Z,100.00
2022-09-20T10:14:41.494Z,100.00
2022-09-20T10:17:26.563Z,100.00
2022-09-20T10:19:56.075Z,100.00
2022-09-20T10:22:41.682Z,100.00
2022-09-20T10:25:10.247Z,100.00
2022-09-20T10:27:49.181Z,100.00
2022-09-20T10:30:20.722Z,100.00
2022-09-20T10:32:55.079Z,100.00
2022-09-20T10:35:46.300Z,100.00
2022-09-20T10:38:14.586Z,100.00
2022-09-20T10:40:59.569Z,100.00
2022-09-20T10:43:44.369Z,100.00
2022-09-20T10:46:31.972Z,100.00
2022-09-20T10:49:16.630Z,100.00
2022-09-20T10:51:53.121Z,100.00
2022-09-20T10:54:26.724Z,100.00
2022-09-20T10:56:58.046Z,100.00
2022-09-20T10:59:31.382Z,100.00
2022-09-20T11:02:01.381Z,100.00
2022-09-20T11:04:46.186Z,100.00
2022-09-20T11:07:32.625Z,100.00
2022-09-20T11:10:02.656Z,100.00
2022-09-20T11:12:34.403Z,100.00
2022-09-20T11:15:05.737Z,100.00
2022-09-20T11:17:38.790Z,100.00
2022-09-20T11:20:07.719Z,100.00
2022-09-20T11:22:41.444Z,100.00
2022-09-20T11:25:20.052Z,100.00
2022-09-20T11:27:51.737Z,100.00
2022-09-20T11:30:19.913Z,100.00
2022-09-20T11:32:53.074Z,100.00
2022-09-20T11:35:48.938Z,100.00
2022-09-20T11:38:18.050Z,100.00
2022-09-20T11:40:50.291Z,100.00
2022-09-20T11:43:18.396Z,100.00
2022-09-20T11:45:47.726Z,100.00
2022-09-20T11:48:23.447Z,100.00
2022-09-20T11:51:08.789Z,100.00
2022-09-20T11:53:41.206Z,100.00
2022-09-20T11:56:20.119Z,100.00
2022-09-20T11:58:50.624Z,100.00
2022-09-20T12:01:28.322Z,100.00
2022-09-20T12:04:14.566Z,100.00
2022-09-20T12:06:43.956Z,100.00
2022-09-20T12:09:24.253Z,100.00
2022-09-20T12:11:52.245Z,100.00
2022-09-20T12:14:19.910Z,100.00
2022-09-20T12:16:47.713Z,100.00
2022-09-20T12:19:15.071Z,100.00
2022-09-20T12:21:59.934Z,100.00
2022-09-20T12:24:29.187Z,100.00
2022-09-20T12:27:00.255Z,100.00
2022-09-20T12:29:33.951Z,100.00
2022-09-20T12:32:01.514Z,100.00
2022-09-20T12:34:33.629Z,100.00
2022-09-20T12:36:59.955Z,100.00
2022-09-20T12:39:34.246Z,100.00
2022-09-20T12:42:02.165Z,100.00
2022-09-20T12:44:41.946Z,100.00
2022-09-20T12:47:11.308Z,100.00
2022-09-20T12:50:00.760Z,100.00
2022-09-20T12:52:50.319Z,100.00
2022-09-20T12:55:30.166Z,100.00
2022-09-20T12:58:15.024Z,100.00
2022-09-20T13:00:47.253Z,100.00
2022-09-20T13:03:31.817Z,100.00
2022-09-20T13:06:04.800Z,100.00
2022-09-20T13:08:32.662Z,100.00
2022-09-20T13:11:12.465Z,100.00
2022-09-20T13:13:58.086Z,100.00
2022-09-20T13:16:34.213Z,100.00
2022-09-20T13:19:05.483Z,100.00
2022-09-20T13:21:34.293Z,100.00
2022-09-20T13:24:02.220Z,100.00
2022-09-20T13:26:30.062Z,100.00
2022-09-20T13:28:59.040Z,100.00
2022-09-20T13:31:26.701Z,100.00
2022-09-20T13:33:53.495Z,100.00
2022-09-20T13:36:24.265Z,100.00
2022-09-20T13:38:51.022Z,100.00
2022-09-20T13:41:17.411Z,100.00
2022-09-20T13:43:46.359Z,100.00
2022-09-20T13:46:17.387Z,100.00
2022-09-20T13:48:47.206Z,100.00
2022-09-20T13:51:18.238Z,100.00
2022-09-20T13:53:44.917Z,100.00
2022-09-20T13:56:22.825Z,100.00
2022-09-20T13:58:50.319Z,100.00
2022-09-20T14:01:22.367Z,100.00
2022-09-20T14:03:48.913Z,100.00
2022-09-20T14:06:16.047Z,100.00
2022-09-20T14:08:44.322Z,100.00
2022-09-20T14:11:10.623Z,100.00
2022-09-20T14:13:38.906Z,100.00
2022-09-20T14:16:06.294Z,100.00
2022-09-20T14:18:33.153Z,100.00
2022-09-20T14:21:00.135Z,100.00
2022-09-20T14:23:27.699Z,100.00
2022-09-20T14:26:22.261Z,100.00
2022-09-20T14:28:48.607Z,100.00
2022-09-20T14:31:21.324Z,100.00
2022-09-20T14:33:54.893Z,100.00
2022-09-20T14:36:23.757Z,100.00
2022-09-20T14:38:51.862Z,100.00
2022-09-20T14:41:33.084Z,100.00
2022-09-20T14:44:00.665Z,100.00
2022-09-20T14:46:33.750Z,100.00
2022-09-20T14:49:19.494Z,100.00
2022-09-20T14:51:46.024Z,100.00
2022-09-20T14:54:12.325Z,100.00
2022-09-20T14:56:49.299Z,100.00
2022-09-20T14:59:21.056Z,100.00
2022-09-20T15:01:56.529Z,100.00
2022-09-20T15:04:23.436Z,100.00
2022-09-20T15:06:50.108Z,100.00
2022-09-20T15:09:18.280Z,100.00
2022-09-20T15:11:44.827Z,100.00
2022-09-20T15:14:12.398Z,100.00
2022-09-20T15:16:38.810Z,100.00
2022-09-20T15:19:07.917Z,100.00
2022-09-20T15:21:34.292Z,100.00
2022-09-20T15:24:00.713Z,100.00
2022-09-20T15:26:27.009Z,100.00
2022-09-20T15:28:53.352Z,100.00
2022-09-20T15:31:20.114Z,100.00
2022-09-20T15:33:46.546Z,100.00
2022-09-20T15:36:12.850Z,100.00
2022-09-20T15:38:39.438Z,100.00
2022-09-20T15:41:05.897Z,100.00
2022-09-20T15:43:32.352Z,100.00
2022-09-20T15:46:17.292Z,100.00
2022-09-20T15:48:43.655Z,100.00
2022-09-20T15:51:11.293Z,100.00
2022-09-20T15:53:43.451Z,100.00
2022-09-20T15:56:15.829Z,100.00
2022-09-20T15:58:47.217Z,100.00
2022-09-20T16:01:16.488Z,100.00
2022-09-20T16:03:43.889Z,100.00
2022-09-20T16:06:10.730Z,100.00
2022-09-20T16:08:38.575Z,100.00
2022-09-20T16:11:06.069Z,100.00
2022-09-20T16:13:32.596Z,100.00
2022-09-20T16:16:00.200Z,100.00
2022-09-20T16:18:45.900Z,100.00
2022-09-20T16:21:12.958Z,100.00
2022-09-20T16:23:40.156Z,100.00
2022-09-20T16:26:07.166Z,100.00
2022-09-20T16:28:33.558Z,100.00
2022-09-20T16:31:00.149Z,100.00
2022-09-20T16:33:26.550Z,100.00
2022-09-20T16:35:52.857Z,100.00
2022-09-20T16:38:19.180Z,100.00
2022-09-20T16:40:48.329Z,100.00
2022-09-20T16:43:25.744Z,100.00
2022-09-20T16:45:59.412Z,100.00
2022-09-20T16:48:31.181Z,100.00
2022-09-20T16:50:59.072Z,100.00
2022-09-20T16:53:26.129Z,100.00
2022-09-20T16:55:55.003Z,100.00
2022-09-20T16:58:28.381Z,100.00
2022-09-20T17:00:54.988Z,100.00
2022-09-20T17:03:23.150Z,100.00
2022-09-20T17:05:50.797Z,100.00
2022-09-20T17:08:17.142Z,100.00
2022-09-20T17:10:45.219Z,100.00
2022-09-20T17:13:12.543Z,100.00
2022-09-20T17:15:39.818Z,100.00
2022-09-20T17:18:07.296Z,100.00
2022-09-20T17:20:33.913Z,100.00
2022-09-20T17:23:00.209Z,100.00
2022-09-20T17:25:27.374Z,100.00
2022-09-20T17:27:53.712Z,100.00
2022-09-20T17:30:20.287Z,100.00
2022-09-20T17:32:50.363Z,100.00
2022-09-20T17:35:18.117Z,100.00
2022-09-20T17:37:44.426Z,100.00
2022-09-20T17:40:10.837Z,100.00
2022-09-20T17:42:39.081Z,100.00
2022-09-20T17:45:05.731Z,100.00
2022-09-20T17:47:32.036Z,100.00
2022-09-20T17:49:58.367Z,100.00
2022-09-20T17:52:24.708Z,100.00
2022-09-20T17:54:51.022Z,100.00
2022-09-20T17:57:17.342Z,100.00
2022-09-20T17:59:43.926Z,100.00
2022-09-20T18:02:10.488Z,100.00
2022-09-20T18:04:36.875Z,100.00
2022-09-20T18:07:04.069Z,100.00
2022-09-20T18:09:30.377Z,100.00
2022-09-20T18:11:56.772Z,100.00
2022-09-20T18:14:24.678Z,100.00
2022-09-20T18:16:52.003Z,100.00
2022-09-20T18:19:18.481Z,100.00
2022-09-20T18:21:44.880Z,100.00
2022-09-20T18:24:11.554Z,100.00
2022-09-20T18:26:38.902Z,100.00
2022-09-20T18:29:17.668Z,100.00
2022-09-20T18:31:52.084Z,100.00
2022-09-20T18:34:19.862Z,100.00
2022-09-20T18:36:51.516Z,100.00
2022-09-20T18:39:19.240Z,100.00
2022-09-20T18:41:45.724Z,100.00
2022-09-20T18:44:14.994Z,100.00
2022-09-20T18:46:41.653Z,100.00
2022-09-20T18:49:09.281Z,100.00
2022-09-20T18:51:39.704Z,100.00
2022-09-20T18:54:08.915Z,100.00
2022-09-20T18:56:35.948Z,100.00
2022-09-20T18:59:04.178Z,100.00
2022-09-20T19:01:49.296Z,100.00
2022-09-20T19:04:24.797Z,100.00
2022-09-20T19:07:10.102Z,100.00
2022-09-20T19:09:40.246Z,100.00
2022-09-20T19:12:19.356Z,100.00
2022-09-20T19:14:45.658Z,100.00
2022-09-20T19:17:16.707Z,100.00
2022-09-20T19:19:45.923Z,100.00
2022-09-20T19:22:21.879Z,100.00
2022-09-20T19:25:15.200Z,100.00
2022-09-20T19:27:41.795Z,100.00
2022-09-20T19:30:12.368Z,100.00
2022-09-20T19:32:38.876Z,100.00
2022-09-20T19:35:05.585Z,100.00
2022-09-20T19:37:53.425Z,100.00
2022-09-20T19:40:32.821Z,100.00
2022-09-20T19:43:15.637Z,100.00
2022-09-20T19:45:55.661Z,100.00
2022-09-20T19:48:30.540Z,100.00
2022-09-20T19:50:57.338Z,100.00
2022-09-20T19:53:27.543Z,100.00
2022-09-20T19:55:56.892Z,100.00
2022-09-20T19:58:23.473Z,100.00
2022-09-20T20:00:49.989Z,100.00
2022-09-20T20:03:16.770Z,100.00
2022-09-20T20:05:48.754Z,100.00
2022-09-20T20:08:21.207Z,100.00
2022-09-20T20:11:06.286Z,100.00
2022-09-20T20:13:55.496Z,100.00
2022-09-20T20:16:25.322Z,100.00
2022-09-20T20:19:11.962Z,100.00
2022-09-20T20:21:46.254Z,100.00
2022-09-20T20:24:20.767Z,100.00
2022-09-20T20:26:47.190Z,100.00
2022-09-20T20:29:13.857Z,100.00
2022-09-20T20:31:40.681Z,100.00
2022-09-20T20:34:08.800Z,100.00
2022-09-20T20:36:35.361Z,100.00
2022-09-20T20:39:02.781Z,100.00
2022-09-20T20:41:31.864Z,100.00
2022-09-20T20:43:58.335Z,100.00
2022-09-20T20:46:25.119Z,100.00
2022-09-20T20:48:51.632Z,100.00
2022-09-20T20:51:19.557Z,100.00
2022-09-20T20:53:48.092Z,100.00
2022-09-20T20:56:16.073Z,100.00
2022-09-20T20:58:43.064Z,100.00
2022-09-20T21:01:17.159Z,100.00
2022-09-20T21:03:46.313Z,100.00
2022-09-20T21:06:13.255Z,100.00
2022-09-20T21:08:40.763Z,100.00
2022-09-20T21:11:08.673Z,100.00
2022-09-20T21:13:35.362Z,100.00
2022-09-20T21:16:02.908Z,100.00
2022-09-20T21:18:29.252Z,100.00
2022-09-20T21:20:55.550Z,100.00
2022-09-20T21:23:21.906Z,100.00
2022-09-20T21:25:49.077Z,100.00
2022-09-20T21:28:15.385Z,100.00
2022-09-20T21:30:41.742Z,100.00
2022-09-20T21:33:08.072Z,100.00
2022-09-20T21:35:34.369Z,100.00
2022-09-20T21:38:00.969Z,100.00
2022-09-20T21:40:27.310Z,100.00
2022-09-20T21:42:54.991Z,100.00
2022-09-20T21:45:23.833Z,100.00
2022-09-20T21:47:50.215Z,100.00
2022-09-20T21:50:16.614Z,100.00
2022-09-20T21:52:46.197Z,100.00
2022-09-20T21:55:12.500Z,100.00
2022-09-20T21:57:38.800Z,100.00
2022-09-20T22:00:06.911Z,100.00
2022-09-20T22:02:35.132Z,100.00
2022-09-20T22:05:02.730Z,100.00
2022-09-20T22:07:29.122Z,100.00
2022-09-20T22:09:55.415Z,100.00
2022-09-20T22:12:24.090Z,100.00
2022-09-20T22:14:50.572Z,100.00
2022-09-20T22:17:16.875Z,100.00
2022-09-20T22:19:43.572Z,100.00
2022-09-20T22:22:09.909Z,100.00
2022-09-20T22:24:36.272Z,100.00
2022-09-20T22:27:02.584Z,100.00
2022-09-20T22:29:29.078Z,100.00
2022-09-20T22:31:55.433Z,100.00
2022-09-20T22:34:22.554Z,100.00
2022-09-20T22:36:49.372Z,100.00
2022-09-20T22:39:16.012Z,100.00
2022-09-20T22:41:42.624Z,100.00
2022-09-20T22:44:09.284Z,100.00
2022-09-20T22:46:35.809Z,100.00
2022-09-20T22:49:04.334Z,100.00
2022-09-20T22:51:31.391Z,100.00
2022-09-20T22:53:57.809Z,100.00
2022-09-20T22:56:25.765Z,100.00
2022-09-20T22:58:54.066Z,100.00
2022-09-20T23:01:24.060Z,100.00
2022-09-20T23:03:56.045Z,100.00
2022-09-20T23:06:27.368Z,100.00
2022-09-20T23:08:55.868Z,100.00
2022-09-20T23:11:22.255Z,100.00
2022-09-20T23:13:52.824Z,100.00
2022-09-20T23:16:21.178Z,100.00
2022-09-20T23:18:48.082Z,100.00
2022-09-20T23:21:14.917Z,100.00
2022-09-20T23:23:44.611Z,100.00
2022-09-20T23:26:16.068Z,100.00
2022-09-20T23:28:43.882Z,100.00
2022-09-20T23:31:14.224Z,100.00
2022-09-20T23:33:44.726Z,100.00
2022-09-20T23:36:13.224Z,100.00
2022-09-20T23:38:39.518Z,100.00
2022-09-20T23:41:06.809Z,100.00
2022-09-20T23:43:33.733Z,100.00
2022-09-20T23:46:00.537Z,100.00
2022-09-20T23:48:26.997Z,100.00
2022-09-20T23:50:53.622Z,100.00
2022-09-20T23:53:19.938Z,100.00
2022-09-20T23:55:46.386Z,100.00
2022-09-20T23:58:12.766Z,100.00
